createdAt,value
2023-02-13T00:00:42.987Z,8.78
2023-02-13T00:01:42.962Z,8.78
2023-02-13T00:02:43.159Z,8.73
2023-02-13T00:03:43.248Z,8.74
2023-02-13T00:04:42.875Z,8.85
2023-02-13T00:05:42.849Z,8.74
2023-02-13T00:06:42.794Z,8.79
2023-02-13T00:07:42.763Z,8.88
2023-02-13T00:08:42.775Z,8.89
2023-02-13T00:09:42.732Z,8.85
2023-02-13T00:10:42.694Z,8.92
2023-02-13T00:11:42.643Z,8.88
2023-02-13T00:12:42.618Z,8.79
2023-02-13T00:13:42.623Z,8.84
2023-02-13T00:14:42.574Z,8.85
2023-02-13T00:15:42.669Z,8.82
2023-02-13T00:16:42.507Z,8.85
2023-02-13T00:17:42.463Z,8.79
2023-02-13T00:18:42.424Z,8.76
2023-02-13T00:19:42.411Z,8.81
2023-02-13T00:20:42.391Z,8.78
2023-02-13T00:21:42.336Z,8.87
2023-02-13T00:22:42.293Z,8.92
2023-02-13T00:23:42.316Z,8.82
2023-02-13T00:24:42.268Z,8.74
2023-02-13T00:25:42.226Z,8.79
2023-02-13T00:26:42.210Z,8.79
2023-02-13T00:27:42.151Z,8.85
2023-02-13T00:28:42.329Z,8.81
2023-02-13T00:29:42.100Z,8.81
2023-02-13T00:30:42.194Z,8.82
2023-02-13T00:31:42.304Z,8.89
2023-02-13T00:32:41.990Z,8.91
2023-02-13T00:33:41.956Z,8.84
2023-02-13T00:34:41.934Z,8.84
2023-02-13T00:35:41.888Z,8.89
2023-02-13T00:36:41.889Z,8.85
2023-02-13T00:37:41.839Z,8.85
2023-02-13T00:38:41.820Z,8.87
2023-02-13T00:39:41.770Z,8.84
2023-02-13T00:40:41.776Z,8.84
2023-02-13T00:41:41.728Z,8.91
2023-02-13T00:42:41.733Z,8.87
2023-02-13T00:43:41.653Z,8.84
2023-02-13T00:44:41.626Z,8.87
2023-02-13T00:45:41.584Z,8.85
2023-02-13T00:46:41.787Z,8.84
2023-02-13T00:47:41.517Z,8.84
2023-02-13T00:48:41.508Z,8.84
2023-02-13T00:49:41.465Z,8.84
2023-02-13T00:50:41.429Z,8.84
2023-02-13T00:51:41.398Z,8.88
2023-02-13T00:52:41.363Z,8.84
2023-02-13T00:53:41.361Z,8.84
2023-02-13T00:54:41.312Z,8.85
2023-02-13T00:55:41.274Z,8.82
2023-02-13T00:56:41.295Z,8.85
2023-02-13T00:57:41.225Z,8.92
2023-02-13T00:58:41.500Z,8.79
2023-02-13T00:59:41.144Z,8.88
2023-02-13T01:00:41.124Z,8.87
2023-02-13T01:01:41.267Z,8.81
2023-02-13T01:02:41.101Z,8.85
2023-02-13T01:03:41.221Z,8.82
2023-02-13T01:04:41.008Z,8.88
2023-02-13T01:05:40.969Z,8.84
2023-02-13T01:06:40.943Z,8.84
2023-02-13T01:07:40.897Z,8.92
2023-02-13T01:08:40.886Z,8.85
2023-02-13T01:09:40.872Z,8.87
2023-02-13T01:10:40.832Z,8.89
2023-02-13T01:11:40.784Z,8.87
2023-02-13T01:12:40.777Z,8.87
2023-02-13T01:13:40.733Z,8.82
2023-02-13T01:14:40.762Z,8.85
2023-02-13T01:15:40.522Z,8.88
2023-02-13T01:16:40.627Z,8.91
2023-02-13T01:17:40.606Z,8.91
2023-02-13T01:18:40.604Z,8.87
2023-02-13T01:19:40.549Z,8.92
2023-02-13T01:20:40.501Z,8.95
2023-02-13T01:21:40.487Z,9.03
2023-02-13T01:22:40.461Z,8.92
2023-02-13T01:23:40.419Z,8.89
2023-02-13T01:24:40.430Z,9.04
2023-02-13T01:25:40.387Z,8.95
2023-02-13T01:26:40.347Z,8.91
2023-02-13T01:27:40.080Z,8.95
2023-02-13T01:28:40.542Z,9.03
2023-02-13T01:29:40.227Z,8.97
2023-02-13T01:30:40.406Z,8.97
2023-02-13T01:31:40.621Z,8.99
2023-02-13T01:32:40.141Z,8.89
2023-02-13T01:33:40.105Z,8.97
2023-02-13T01:34:40.165Z,8.97
2023-02-13T01:35:40.062Z,8.97
2023-02-13T01:36:40.011Z,8.91
2023-02-13T01:37:39.995Z,9.02
2023-02-13T01:38:39.965Z,8.95
2023-02-13T01:39:39.958Z,8.91
2023-02-13T01:40:39.890Z,8.89
2023-02-13T01:41:39.859Z,8.92
2023-02-13T01:42:39.829Z,8.94
2023-02-13T01:43:39.790Z,8.91
2023-02-13T01:44:39.797Z,9
2023-02-13T01:45:39.735Z,8.94
2023-02-13T01:46:40.117Z,8.99
2023-02-13T01:47:39.671Z,8.94
2023-02-13T01:48:39.675Z,8.97
2023-02-13T01:49:39.604Z,8.97
2023-02-13T01:50:39.603Z,8.97
2023-02-13T01:51:39.549Z,8.92
2023-02-13T01:52:39.507Z,8.94
2023-02-13T01:53:39.512Z,9.02
2023-02-13T01:54:39.445Z,8.92
2023-02-13T01:55:39.425Z,8.91
2023-02-13T01:56:39.399Z,8.91
2023-02-13T01:57:39.358Z,9.02
2023-02-13T01:58:39.328Z,8.97
2023-02-13T01:59:39.297Z,8.97
2023-02-13T02:00:39.316Z,8.97
2023-02-13T02:01:39.584Z,8.88
2023-02-13T02:02:39.374Z,8.91
2023-02-13T02:03:39.193Z,8.97
2023-02-13T02:04:39.162Z,8.95
2023-02-13T02:05:39.110Z,8.92
2023-02-13T02:06:39.204Z,9
2023-02-13T02:07:39.065Z,8.92
2023-02-13T02:08:39.038Z,8.92
2023-02-13T02:09:38.989Z,9.04
2023-02-13T02:10:38.955Z,8.99
2023-02-13T02:11:38.945Z,8.89
2023-02-13T02:12:38.898Z,8.91
2023-02-13T02:13:38.865Z,8.89
2023-02-13T02:14:38.844Z,8.89
2023-02-13T02:15:38.972Z,8.91
2023-02-13T02:16:38.841Z,8.92
2023-02-13T02:17:38.496Z,8.89
2023-02-13T02:18:38.748Z,8.89
2023-02-13T02:19:38.731Z,8.94
2023-02-13T02:20:38.662Z,8.88
2023-02-13T02:21:38.685Z,8.87
2023-02-13T02:22:38.634Z,8.89
2023-02-13T02:23:38.570Z,8.87
2023-02-13T02:24:38.530Z,8.89
2023-02-13T02:25:38.500Z,8.84
2023-02-13T02:26:38.463Z,8.85
2023-02-13T02:27:38.433Z,8.81
2023-02-13T02:28:38.558Z,8.78
2023-02-13T02:29:38.373Z,8.94
2023-02-13T02:30:38.532Z,8.81
2023-02-13T02:31:38.501Z,8.92
2023-02-13T02:32:38.319Z,8.85
2023-02-13T02:33:38.260Z,8.87
2023-02-13T02:34:38.265Z,8.87
2023-02-13T02:35:38.243Z,8.87
2023-02-13T02:36:38.180Z,8.84
2023-02-13T02:37:38.133Z,8.91
2023-02-13T02:38:38.163Z,8.89
2023-02-13T02:39:38.083Z,8.88
2023-02-13T02:40:38.056Z,8.87
2023-02-13T02:41:38.033Z,8.84
2023-02-13T02:42:37.971Z,8.88
2023-02-13T02:43:37.945Z,8.87
2023-02-13T02:44:37.919Z,8.92
2023-02-13T02:45:37.882Z,8.89
2023-02-13T02:46:38.061Z,8.84
2023-02-13T02:47:37.828Z,8.85
2023-02-13T02:48:37.828Z,8.87
2023-02-13T02:49:37.752Z,8.85
2023-02-13T02:50:37.771Z,8.84
2023-02-13T02:51:37.691Z,8.87
2023-02-13T02:52:37.688Z,8.81
2023-02-13T02:53:37.648Z,8.84
2023-02-13T02:54:37.639Z,8.84
2023-02-13T02:55:37.566Z,8.88
2023-02-13T02:56:37.549Z,8.84
2023-02-13T02:57:37.508Z,8.88
2023-02-13T02:58:37.504Z,8.87
2023-02-13T02:59:37.475Z,8.87
2023-02-13T03:00:37.638Z,8.87
2023-02-13T03:01:37.388Z,8.81
2023-02-13T03:02:37.363Z,8.87
2023-02-13T03:03:37.330Z,8.87
2023-02-13T03:04:37.412Z,8.92
2023-02-13T03:05:37.314Z,8.91
2023-02-13T03:06:37.256Z,8.82
2023-02-13T03:07:37.198Z,8.84
2023-02-13T03:08:37.166Z,8.89
2023-02-13T03:09:37.135Z,8.88
2023-02-13T03:10:37.134Z,8.87
2023-02-13T03:11:37.071Z,8.82
2023-02-13T03:12:37.052Z,8.91
2023-02-13T03:13:37.015Z,8.78
2023-02-13T03:14:36.990Z,8.81
2023-02-13T03:15:36.955Z,8.79
2023-02-13T03:16:37.210Z,8.7
2023-02-13T03:17:36.907Z,8.82
2023-02-13T03:18:36.849Z,8.74
2023-02-13T03:19:36.823Z,8.73
2023-02-13T03:20:36.825Z,8.78
2023-02-13T03:21:36.776Z,8.76
2023-02-13T03:22:36.760Z,8.67
2023-02-13T03:23:36.476Z,8.74
2023-02-13T03:24:36.672Z,8.67
2023-02-13T03:25:36.990Z,8.66
2023-02-13T03:26:36.640Z,8.71
2023-02-13T03:27:36.576Z,8.69
2023-02-13T03:28:36.752Z,8.61
2023-02-13T03:29:36.521Z,8.73
2023-02-13T03:30:36.564Z,8.64
2023-02-13T03:31:36.649Z,8.66
2023-02-13T03:32:36.428Z,8.64
2023-02-13T03:33:36.405Z,8.64
2023-02-13T03:34:36.364Z,8.64
2023-02-13T03:35:36.328Z,8.55
2023-02-13T03:36:36.095Z,8.63
2023-02-13T03:37:36.268Z,8.58
2023-02-13T03:38:36.271Z,8.56
2023-02-13T03:39:36.202Z,8.42
2023-02-13T03:40:36.188Z,8.52
2023-02-13T03:41:36.153Z,8.55
2023-02-13T03:42:36.135Z,8.55
2023-02-13T03:43:36.097Z,8.49
2023-02-13T03:44:36.069Z,8.53
2023-02-13T03:45:36.127Z,8.42
2023-02-13T03:46:35.989Z,8.48
2023-02-13T03:47:35.956Z,8.49
2023-02-13T03:48:35.920Z,8.48
2023-02-13T03:49:35.892Z,8.46
2023-02-13T03:50:35.862Z,8.45
2023-02-13T03:51:35.827Z,8.46
2023-02-13T03:52:35.822Z,8.45
2023-02-13T03:53:35.786Z,8.48
2023-02-13T03:54:35.785Z,8.42
2023-02-13T03:55:35.711Z,8.45
2023-02-13T03:56:35.671Z,8.49
2023-02-13T03:57:35.650Z,8.45
2023-02-13T03:58:35.639Z,8.44
2023-02-13T03:59:35.594Z,8.42
2023-02-13T04:00:35.564Z,8.46
2023-02-13T04:01:35.680Z,8.37
2023-02-13T04:02:35.373Z,8.37
2023-02-13T04:03:35.470Z,8.33
2023-02-13T04:04:35.430Z,8.41
2023-02-13T04:05:35.392Z,8.36
2023-02-13T04:06:35.367Z,8.34
2023-02-13T04:07:35.580Z,8.34
2023-02-13T04:08:35.341Z,8.37
2023-02-13T04:09:35.283Z,8.36
2023-02-13T04:10:35.274Z,8.24
2023-02-13T04:11:35.237Z,8.2
2023-02-13T04:12:34.938Z,8.27
2023-02-13T04:13:35.161Z,8.24
2023-02-13T04:14:35.145Z,8.26
2023-02-13T04:15:35.100Z,8.27
2023-02-13T04:16:35.257Z,8.27
2023-02-13T04:17:35.038Z,8.33
2023-02-13T04:18:35.003Z,8.27
2023-02-13T04:19:34.952Z,8.31
2023-02-13T04:20:34.945Z,8.31
2023-02-13T04:21:34.891Z,8.27
2023-02-13T04:22:34.878Z,8.3
2023-02-13T04:23:36.800Z,8.27
2023-02-13T04:24:34.854Z,8.36
2023-02-13T04:25:34.767Z,8.36
2023-02-13T04:26:34.764Z,8.31
2023-02-13T04:27:34.709Z,8.3
2023-02-13T04:28:35.007Z,8.3
2023-02-13T04:29:34.409Z,8.24
2023-02-13T04:30:34.752Z,8.28
2023-02-13T04:31:35.078Z,8.34
2023-02-13T04:32:34.560Z,8.28
2023-02-13T04:33:34.536Z,8.19
2023-02-13T04:34:34.484Z,8.26
2023-02-13T04:35:34.461Z,8.23
2023-02-13T04:36:34.444Z,8.19
2023-02-13T04:37:34.390Z,8.24
2023-02-13T04:38:34.362Z,8.15
2023-02-13T04:39:34.339Z,8.15
2023-02-13T04:40:34.345Z,8.26
2023-02-13T04:41:34.291Z,8.28
2023-02-13T04:42:34.289Z,8.18
2023-02-13T04:43:34.265Z,8.24
2023-02-13T04:44:34.172Z,8.26
2023-02-13T04:45:34.175Z,8.26
2023-02-13T04:46:34.135Z,8.18
2023-02-13T04:47:34.079Z,8.18
2023-02-13T04:48:34.053Z,8.27
2023-02-13T04:49:34.028Z,8.16
2023-02-13T04:50:33.999Z,8.16
2023-02-13T04:51:33.964Z,8.24
2023-02-13T04:52:33.919Z,8.15
2023-02-13T04:53:33.892Z,8.24
2023-02-13T04:54:33.862Z,8.18
2023-02-13T04:55:33.836Z,8.28
2023-02-13T04:56:33.825Z,8.24
2023-02-13T04:57:33.769Z,8.24
2023-02-13T04:58:33.772Z,8.26
2023-02-13T04:59:33.716Z,8.15
2023-02-13T05:00:33.849Z,8.18
2023-02-13T05:01:33.843Z,8.2
2023-02-13T05:02:33.784Z,8.23
2023-02-13T05:03:33.589Z,8.26
2023-02-13T05:04:33.814Z,8.26
2023-02-13T05:05:33.523Z,8.26
2023-02-13T05:06:33.490Z,8.27
2023-02-13T05:07:33.449Z,8.2
2023-02-13T05:08:33.498Z,8.24
2023-02-13T05:09:33.464Z,8.33
2023-02-13T05:10:33.365Z,8.34
2023-02-13T05:11:33.325Z,8.28
2023-02-13T05:12:33.492Z,8.23
2023-02-13T05:13:33.273Z,8.23
2023-02-13T05:14:33.252Z,8.2
2023-02-13T05:15:33.404Z,8.28
2023-02-13T05:16:33.165Z,8.23
2023-02-13T05:17:33.539Z,8.27
2023-02-13T05:18:33.134Z,8.26
2023-02-13T05:19:33.086Z,8.26
2023-02-13T05:20:33.046Z,8.23
2023-02-13T05:21:33.022Z,8.2
2023-02-13T05:22:32.979Z,8.2
2023-02-13T05:23:32.954Z,8.26
2023-02-13T05:24:32.978Z,8.2
2023-02-13T05:25:32.886Z,8.28
2023-02-13T05:26:32.882Z,8.23
2023-02-13T05:27:32.834Z,8.2
2023-02-13T05:28:33.116Z,8.2
2023-02-13T05:29:32.762Z,8.26
2023-02-13T05:30:32.756Z,8.2
2023-02-13T05:31:33.147Z,8.16
2023-02-13T05:32:32.676Z,8.2
2023-02-13T05:33:32.633Z,8.23
2023-02-13T05:34:32.635Z,8.15
2023-02-13T05:35:32.582Z,8.3
2023-02-13T05:36:32.551Z,8.19
2023-02-13T05:37:32.512Z,8.18
2023-02-13T05:38:32.491Z,8.18
2023-02-13T05:39:32.452Z,8.15
2023-02-13T05:40:32.434Z,8.27
2023-02-13T05:41:32.396Z,8.16
2023-02-13T05:42:32.357Z,8.16
2023-02-13T05:43:32.323Z,8.15
2023-02-13T05:44:32.327Z,8.18
2023-02-13T05:45:32.256Z,8.2
2023-02-13T05:46:32.454Z,8.18
2023-02-13T05:47:32.199Z,8.19
2023-02-13T05:48:32.171Z,8.12
2023-02-13T05:49:32.144Z,8.12
2023-02-13T05:50:32.132Z,8.13
2023-02-13T05:51:32.074Z,8.19
2023-02-13T05:52:32.060Z,8.09
2023-02-13T05:53:32.034Z,8.12
2023-02-13T05:54:31.992Z,8.12
2023-02-13T05:55:31.950Z,8.06
2023-02-13T05:56:31.944Z,8.05
2023-02-13T05:57:33.903Z,8.06
2023-02-13T05:58:31.874Z,8.13
2023-02-13T05:59:31.815Z,8.05
2023-02-13T06:00:31.898Z,8
2023-02-13T06:01:31.762Z,8.01
2023-02-13T06:02:31.879Z,7.95
2023-02-13T06:03:32.042Z,7.97
2023-02-13T06:04:31.667Z,8.03
2023-02-13T06:05:31.631Z,7.91
2023-02-13T06:06:31.646Z,7.93
2023-02-13T06:07:31.595Z,7.95
2023-02-13T06:08:31.548Z,7.9
2023-02-13T06:09:31.502Z,7.85
2023-02-13T06:10:31.468Z,7.85
2023-02-13T06:11:31.454Z,7.85
2023-02-13T06:12:31.400Z,7.82
2023-02-13T06:13:31.387Z,7.83
2023-02-13T06:14:31.337Z,7.8
2023-02-13T06:15:31.306Z,7.83
2023-02-13T06:16:31.579Z,7.8
2023-02-13T06:17:31.244Z,7.77
2023-02-13T06:18:31.309Z,7.76
2023-02-13T06:19:31.205Z,7.6
2023-02-13T06:20:31.176Z,7.75
2023-02-13T06:21:31.112Z,7.67
2023-02-13T06:22:31.118Z,7.63
2023-02-13T06:23:31.048Z,7.57
2023-02-13T06:24:31.018Z,7.51
2023-02-13T06:25:30.987Z,7.45
2023-02-13T06:26:30.995Z,7.45
2023-02-13T06:27:30.928Z,7.5
2023-02-13T06:28:31.018Z,7.51
2023-02-13T06:29:30.865Z,7.36
2023-02-13T06:30:30.675Z,7.32
2023-02-13T06:31:31.356Z,7.31
2023-02-13T06:32:30.798Z,7.28
2023-02-13T06:33:30.748Z,7.21
2023-02-13T06:34:30.741Z,7.15
2023-02-13T06:35:30.715Z,7.14
2023-02-13T06:36:30.639Z,7.15
2023-02-13T06:37:30.602Z,7.06
2023-02-13T06:38:30.646Z,6.97
2023-02-13T06:39:30.579Z,6.99
2023-02-13T06:40:30.521Z,6.96
2023-02-13T06:41:30.483Z,7.02
2023-02-13T06:42:30.448Z,6.89
2023-02-13T06:43:30.439Z,6.99
2023-02-13T06:44:30.379Z,6.85
2023-02-13T06:45:30.400Z,6.88
2023-02-13T06:46:30.619Z,6.88
2023-02-13T06:47:30.298Z,6.85
2023-02-13T06:48:30.294Z,6.92
2023-02-13T06:49:30.215Z,6.87
2023-02-13T06:50:30.264Z,6.84
2023-02-13T06:51:30.169Z,6.85
2023-02-13T06:52:30.127Z,6.96
2023-02-13T06:53:30.089Z,6.89
2023-02-13T06:54:50.661Z,6.84
2023-02-13T06:55:30.038Z,6.93
2023-02-13T06:56:29.989Z,6.78
2023-02-13T06:57:29.977Z,6.78
2023-02-13T06:58:29.967Z,6.81
2023-02-13T06:59:29.890Z,6.7
2023-02-13T07:00:32.116Z,6.75
2023-02-13T07:01:29.815Z,6.79
2023-02-13T07:02:30.105Z,6.79
2023-02-13T07:03:29.785Z,6.79
2023-02-13T07:04:29.939Z,6.84
2023-02-13T07:05:29.467Z,6.77
2023-02-13T07:06:29.694Z,6.77
2023-02-13T07:07:29.626Z,6.85
2023-02-13T07:08:29.601Z,6.81
2023-02-13T07:09:29.660Z,6.81
2023-02-13T07:10:29.557Z,6.78
2023-02-13T07:11:29.496Z,6.87
2023-02-13T07:12:29.483Z,6.81
2023-02-13T07:13:29.437Z,6.77
2023-02-13T07:14:29.411Z,6.79
2023-02-13T07:15:29.372Z,6.78
2023-02-13T07:16:29.619Z,6.79
2023-02-13T07:17:29.330Z,6.81
2023-02-13T07:18:29.276Z,6.82
2023-02-13T07:19:29.281Z,6.84
2023-02-13T07:20:29.241Z,6.79
2023-02-13T07:21:29.172Z,6.79
2023-02-13T07:22:29.193Z,6.85
2023-02-13T07:23:29.105Z,6.82
2023-02-13T07:24:29.080Z,6.87
2023-02-13T07:25:29.103Z,6.87
2023-02-13T07:26:29.049Z,6.93
2023-02-13T07:27:28.979Z,6.95
2023-02-13T07:28:29.011Z,6.95
2023-02-13T07:29:28.915Z,6.93
2023-02-13T07:30:29.080Z,6.95
2023-02-13T07:31:29.210Z,6.88
2023-02-13T07:32:28.811Z,6.92
2023-02-13T07:33:28.790Z,6.95
2023-02-13T07:34:28.765Z,6.93
2023-02-13T07:35:28.723Z,6.89
2023-02-13T07:36:28.720Z,6.89
2023-02-13T07:37:28.658Z,6.97
2023-02-13T07:38:28.665Z,6.89
2023-02-13T07:39:28.606Z,6.96
2023-02-13T07:40:28.596Z,6.96
2023-02-13T07:41:28.547Z,6.95
2023-02-13T07:42:28.549Z,6.96
2023-02-13T07:43:28.460Z,6.92
2023-02-13T07:44:28.428Z,6.92
2023-02-13T07:45:28.432Z,6.95
2023-02-13T07:46:28.444Z,6.92
2023-02-13T07:47:28.326Z,6.92
2023-02-13T07:48:28.300Z,7.02
2023-02-13T07:49:28.261Z,6.93
2023-02-13T07:50:28.388Z,7.02
2023-02-13T07:51:28.211Z,7
2023-02-13T07:52:28.312Z,7.06
2023-02-13T07:53:28.150Z,7.05
2023-02-13T07:54:28.127Z,7.1
2023-02-13T07:55:28.071Z,7.02
2023-02-13T07:56:28.044Z,7.13
2023-02-13T07:57:28.025Z,7.11
2023-02-13T07:58:27.804Z,7.13
2023-02-13T07:59:27.959Z,7.07
2023-02-13T08:00:27.933Z,7.15
2023-02-13T08:01:28.086Z,7.13
2023-02-13T08:02:27.853Z,7.06
2023-02-13T08:03:27.843Z,7.15
2023-02-13T08:04:30.792Z,7.13
2023-02-13T08:05:27.752Z,7.2
2023-02-13T08:06:27.724Z,7.18
2023-02-13T08:07:27.689Z,7.14
2023-02-13T08:08:27.680Z,7.24
2023-02-13T08:09:27.389Z,7.24
2023-02-13T08:10:27.663Z,7.32
2023-02-13T08:11:27.562Z,7.31
2023-02-13T08:12:27.524Z,7.32
2023-02-13T08:13:27.511Z,7.33
2023-02-13T08:14:27.512Z,7.38
2023-02-13T08:15:27.566Z,7.36
2023-02-13T08:16:27.412Z,7.36
2023-02-13T08:17:27.361Z,7.33
2023-02-13T08:18:27.344Z,7.42
2023-02-13T08:19:27.301Z,7.43
2023-02-13T08:20:27.390Z,7.47
2023-02-13T08:21:27.009Z,7.47
2023-02-13T08:22:27.394Z,7.47
2023-02-13T08:23:27.128Z,7.47
2023-02-13T08:24:27.217Z,7.43
2023-02-13T08:25:27.100Z,7.5
2023-02-13T08:26:27.127Z,7.53
2023-02-13T08:27:27.043Z,7.45
2023-02-13T08:28:27.170Z,7.53
2023-02-13T08:29:26.973Z,7.54
2023-02-13T08:30:26.747Z,7.58
2023-02-13T08:31:27.339Z,7.47
2023-02-13T08:32:27.153Z,7.63
2023-02-13T08:33:26.843Z,7.63
2023-02-13T08:34:26.887Z,7.75
2023-02-13T08:35:26.930Z,7.66
2023-02-13T08:36:26.736Z,7.66
2023-02-13T08:37:26.723Z,7.66
2023-02-13T08:38:26.672Z,7.79
2023-02-13T08:39:26.659Z,7.72
2023-02-13T08:40:29.664Z,7.75
2023-02-13T08:41:26.596Z,7.75
2023-02-13T08:42:26.583Z,7.75
2023-02-13T08:43:26.522Z,7.72
2023-02-13T08:44:26.028Z,7.76
2023-02-13T08:45:26.451Z,7.76
2023-02-13T08:46:26.793Z,7.82
2023-02-13T08:47:26.383Z,7.79
2023-02-13T08:48:26.357Z,7.8
2023-02-13T08:49:26.322Z,7.83
2023-02-13T08:50:26.134Z,7.85
2023-02-13T08:51:26.296Z,7.91
2023-02-13T08:52:26.223Z,7.97
2023-02-13T08:53:26.199Z,7.97
2023-02-13T08:54:26.158Z,8
2023-02-13T08:55:26.125Z,8.01
2023-02-13T08:56:26.125Z,8.06
2023-02-13T08:57:26.059Z,8.08
2023-02-13T08:58:26.092Z,8.01
2023-02-13T08:59:25.994Z,8.09
2023-02-13T09:00:25.768Z,8.06
2023-02-13T09:01:26.165Z,8.1
2023-02-13T09:02:25.959Z,8.01
2023-02-13T09:03:25.896Z,8.1
2023-02-13T09:04:25.851Z,8.18
2023-02-13T09:05:25.857Z,8.15
2023-02-13T09:06:25.556Z,8.12
2023-02-13T09:07:25.763Z,8.12
2023-02-13T09:08:25.725Z,8.13
2023-02-13T09:09:25.677Z,8.13
2023-02-13T09:10:25.655Z,8.16
2023-02-13T09:11:25.726Z,8.19
2023-02-13T09:12:25.617Z,8.18
2023-02-13T09:13:25.603Z,8.24
2023-02-13T09:14:27.401Z,8.2
2023-02-13T09:15:25.507Z,8.2
2023-02-13T09:16:25.437Z,8.2
2023-02-13T09:17:25.392Z,8.3
2023-02-13T09:18:25.477Z,8.26
2023-02-13T09:19:25.174Z,8.27
2023-02-13T09:20:25.338Z,8.3
2023-02-13T09:21:25.311Z,8.36
2023-02-13T09:22:25.284Z,8.37
2023-02-13T09:23:25.248Z,8.31
2023-02-13T09:24:25.235Z,8.38
2023-02-13T09:25:25.222Z,8.31
2023-02-13T09:26:25.801Z,8.45
2023-02-13T09:27:25.145Z,8.37
2023-02-13T09:28:25.042Z,8.41
2023-02-13T09:29:25.063Z,8.49
2023-02-13T09:30:25.165Z,8.46
2023-02-13T09:31:27.210Z,8.45
2023-02-13T09:32:24.963Z,8.44
2023-02-13T09:33:24.921Z,8.52
2023-02-13T09:34:24.925Z,8.63
2023-02-13T09:35:24.901Z,8.56
2023-02-13T09:36:25.026Z,8.63
2023-02-13T09:37:24.918Z,8.6
2023-02-13T09:38:24.355Z,8.61
2023-02-13T09:39:24.756Z,8.64
2023-02-13T09:40:24.780Z,8.67
2023-02-13T09:41:24.674Z,8.69
2023-02-13T09:42:24.209Z,8.7
2023-02-13T09:43:24.621Z,8.69
2023-02-13T09:44:24.621Z,8.76
2023-02-13T09:45:24.561Z,8.74
2023-02-13T09:46:24.711Z,8.82
2023-02-13T09:47:24.252Z,8.85
2023-02-13T09:48:24.454Z,8.82
2023-02-13T09:49:24.436Z,8.78
2023-02-13T09:50:24.484Z,8.78
2023-02-13T09:51:24.374Z,8.88
2023-02-13T09:52:24.334Z,8.87
2023-02-13T09:53:24.311Z,8.87
2023-02-13T09:54:24.280Z,8.99
2023-02-13T09:55:24.289Z,8.91
2023-02-13T09:56:24.201Z,9
2023-02-13T09:57:24.179Z,8.97
2023-02-13T09:58:24.147Z,8.99
2023-02-13T09:59:24.153Z,9
2023-02-13T10:00:24.123Z,9.04
2023-02-13T10:01:24.244Z,9.06
2023-02-13T10:02:24.047Z,9.1
2023-02-13T10:03:24.014Z,9.14
2023-02-13T10:04:23.730Z,9.21
2023-02-13T10:05:24.207Z,9.25
2023-02-13T10:06:23.931Z,9.22
2023-02-13T10:07:23.897Z,9.25
2023-02-13T10:08:24.194Z,9.26
2023-02-13T10:09:23.822Z,9.21
2023-02-13T10:10:23.872Z,9.21
2023-02-13T10:11:23.745Z,9.23
2023-02-13T10:12:23.707Z,9.32
2023-02-13T10:13:24.505Z,9.31
2023-02-13T10:14:23.647Z,9.29
2023-02-13T10:15:23.409Z,9.39
2023-02-13T10:16:23.875Z,9.41
2023-02-13T10:17:23.553Z,9.41
2023-02-13T10:18:23.556Z,9.43
2023-02-13T10:19:23.254Z,9.51
2023-02-13T10:20:23.488Z,9.54
2023-02-13T10:21:23.444Z,9.51
2023-02-13T10:22:23.314Z,9.47
2023-02-13T10:23:23.502Z,9.59
2023-02-13T10:24:23.092Z,9.55
2023-02-13T10:25:23.329Z,9.61
2023-02-13T10:26:25.004Z,9.64
2023-02-13T10:27:23.318Z,9.68
2023-02-13T10:28:23.411Z,9.65
2023-02-13T10:29:23.193Z,9.74
2023-02-13T10:30:23.157Z,9.74
2023-02-13T10:31:23.381Z,9.69
2023-02-13T10:32:23.716Z,9.72
2023-02-13T10:33:23.143Z,9.73
2023-02-13T10:34:23.070Z,9.77
2023-02-13T10:35:23.002Z,9.8
2023-02-13T10:36:23.064Z,9.82
2023-02-13T10:37:22.883Z,9.89
2023-02-13T10:38:22.981Z,9.95
2023-02-13T10:39:22.878Z,9.94
2023-02-13T10:40:22.857Z,9.94
2023-02-13T10:41:22.831Z,9.92
2023-02-13T10:42:22.926Z,9.95
2023-02-13T10:43:22.771Z,9.91
2023-02-13T10:44:22.766Z,10.02
2023-02-13T10:45:22.707Z,10.16
2023-02-13T10:46:22.857Z,10.16
2023-02-13T10:47:22.436Z,10.2
2023-02-13T10:48:22.645Z,10.19
2023-02-13T10:49:22.849Z,10.31
2023-02-13T10:50:22.636Z,10.2
2023-02-13T10:51:22.531Z,10.33
2023-02-13T10:52:22.506Z,10.22
2023-02-13T10:53:22.453Z,10.38
2023-02-13T10:54:22.480Z,10.33
2023-02-13T10:55:22.417Z,10.31
2023-02-13T10:56:22.403Z,10.37
2023-02-13T10:57:22.337Z,10.37
2023-02-13T10:58:22.083Z,10.28
2023-02-13T10:59:22.290Z,10.41
2023-02-13T11:00:22.123Z,10.4
2023-02-13T11:01:22.432Z,10.42
2023-02-13T11:02:22.185Z,10.46
2023-02-13T11:03:22.169Z,10.48
2023-02-13T11:04:22.374Z,10.56
2023-02-13T11:05:22.099Z,10.57
2023-02-13T11:06:22.120Z,10.54
2023-02-13T11:07:22.031Z,10.59
2023-02-13T11:08:22.014Z,10.64
2023-02-13T11:09:21.750Z,10.64
2023-02-13T11:10:22.128Z,10.57
2023-02-13T11:11:21.659Z,10.6
2023-02-13T11:12:21.886Z,10.71
2023-02-13T11:13:21.895Z,10.6
2023-02-13T11:14:21.810Z,10.64
2023-02-13T11:15:21.793Z,10.75
2023-02-13T11:16:21.948Z,10.74
2023-02-13T11:17:21.731Z,10.76
2023-02-13T11:18:23.481Z,10.87
2023-02-13T11:19:21.680Z,10.89
2023-02-13T11:20:21.840Z,10.89
2023-02-13T11:21:21.633Z,10.92
2023-02-13T11:22:21.641Z,10.97
2023-02-13T11:23:21.543Z,10.99
2023-02-13T11:24:21.525Z,11.05
2023-02-13T11:25:21.244Z,11.08
2023-02-13T11:26:21.603Z,11.14
2023-02-13T11:27:24.194Z,11.02
2023-02-13T11:28:21.632Z,11.11
2023-02-13T11:29:21.118Z,11.05
2023-02-13T11:30:21.329Z,11.04
2023-02-13T11:31:21.830Z,11.12
2023-02-13T11:32:21.826Z,11.22
2023-02-13T11:33:21.283Z,11.19
2023-02-13T11:34:21.246Z,11.22
2023-02-13T11:35:21.192Z,11.1
2023-02-13T11:36:21.188Z,11.15
2023-02-13T11:37:21.133Z,11.14
2023-02-13T11:38:21.147Z,11.23
2023-02-13T11:39:21.069Z,11.14
2023-02-13T11:40:21.048Z,11.15
2023-02-13T11:41:21.011Z,11.14
2023-02-13T11:42:21.013Z,11.22
2023-02-13T11:43:21.012Z,11.19
2023-02-13T11:44:20.931Z,11.23
2023-02-13T11:45:20.911Z,11.36
2023-02-13T11:46:22.149Z,11.37
2023-02-13T11:47:20.852Z,11.33
2023-02-13T11:48:20.821Z,11.32
2023-02-13T11:49:20.789Z,11.41
2023-02-13T11:50:20.758Z,11.43
2023-02-13T11:51:20.712Z,11.41
2023-02-13T11:52:20.719Z,11.44
2023-02-13T11:53:20.664Z,11.35
2023-02-13T11:54:20.690Z,11.5
2023-02-13T11:55:20.604Z,11.52
2023-02-13T11:56:20.634Z,11.45
2023-02-13T11:57:20.300Z,11.63
2023-02-13T11:58:20.852Z,11.62
2023-02-13T11:59:20.243Z,11.52
2023-02-13T12:00:20.468Z,11.55
2023-02-13T12:01:20.447Z,11.55
2023-02-13T12:02:20.737Z,11.52
2023-02-13T12:03:20.932Z,11.6
2023-02-13T12:04:20.448Z,11.6
2023-02-13T12:05:20.326Z,11.66
2023-02-13T12:06:20.399Z,11.62
2023-02-13T12:07:20.285Z,11.59
2023-02-13T12:08:20.267Z,11.68
2023-02-13T12:09:20.295Z,11.66
2023-02-13T12:10:20.222Z,11.63
2023-02-13T12:11:20.156Z,11.68
2023-02-13T12:12:20.117Z,11.72
2023-02-13T12:13:20.099Z,11.73
2023-02-13T12:14:20.131Z,11.72
2023-02-13T12:15:19.786Z,11.77
2023-02-13T12:16:19.948Z,11.77
2023-02-13T12:17:35.072Z,11.9
2023-02-13T12:18:19.941Z,11.87
2023-02-13T12:19:19.921Z,11.88
2023-02-13T12:20:20.330Z,11.9
2023-02-13T12:21:19.858Z,11.88
2023-02-13T12:22:19.839Z,11.88
2023-02-13T12:23:19.787Z,11.81
2023-02-13T12:24:19.794Z,11.87
2023-02-13T12:25:19.729Z,11.97
2023-02-13T12:26:19.724Z,11.95
2023-02-13T12:27:19.808Z,11.99
2023-02-13T12:28:19.940Z,11.95
2023-02-13T12:29:19.770Z,11.95
2023-02-13T12:30:19.649Z,11.91
2023-02-13T12:31:19.650Z,12
2023-02-13T12:32:19.519Z,12.06
2023-02-13T12:33:19.495Z,12.09
2023-02-13T12:34:19.457Z,12.17
2023-02-13T12:35:19.183Z,12.2
2023-02-13T12:36:19.412Z,12.2
2023-02-13T12:37:19.383Z,12.2
2023-02-13T12:38:19.353Z,12.28
2023-02-13T12:39:19.317Z,12.31
2023-02-13T12:40:19.309Z,12.37
2023-02-13T12:41:19.250Z,12.32
2023-02-13T12:42:19.260Z,12.35
2023-02-13T12:43:19.193Z,12.36
2023-02-13T12:44:19.170Z,12.32
2023-02-13T12:45:19.138Z,12.32
2023-02-13T12:46:19.328Z,12.36
2023-02-13T12:47:19.082Z,12.36
2023-02-13T12:48:19.088Z,12.42
2023-02-13T12:49:19.035Z,12.5
2023-02-13T12:50:18.996Z,12.47
2023-02-13T12:51:18.985Z,12.49
2023-02-13T12:52:19.001Z,12.54
2023-02-13T12:53:18.907Z,12.54
2023-02-13T12:54:18.888Z,12.5
2023-02-13T12:55:18.845Z,12.5
2023-02-13T12:56:18.902Z,12.37
2023-02-13T12:57:18.784Z,12.28
2023-02-13T12:58:18.807Z,12.42
2023-02-13T12:59:18.882Z,12.35
2023-02-13T13:00:18.466Z,12.35
2023-02-13T13:01:18.838Z,12.39
2023-02-13T13:02:18.787Z,12.4
2023-02-13T13:03:18.646Z,12.55
2023-02-13T13:04:18.613Z,12.54
2023-02-13T13:05:18.601Z,12.49
2023-02-13T13:06:18.151Z,12.53
2023-02-13T13:07:18.504Z,12.64
2023-02-13T13:08:18.549Z,12.61
2023-02-13T13:09:18.510Z,12.49
2023-02-13T13:10:18.425Z,12.49
2023-02-13T13:11:18.386Z,12.55
2023-02-13T13:12:18.393Z,12.61
2023-02-13T13:13:18.341Z,12.72
2023-02-13T13:14:18.404Z,12.68
2023-02-13T13:15:18.295Z,12.67
2023-02-13T13:16:20.605Z,12.64